createdAt,value
2017-04-18T00:00:15.257Z,1008.11
2017-04-18T00:00:55.740Z,1008.15
2017-04-18T00:01:36.234Z,1008.13
2017-04-18T00:02:16.709Z,1008.11
2017-04-18T00:02:57.205Z,1008.13
2017-04-18T00:03:37.677Z,1008.14
2017-04-18T00:04:18.165Z,1008.1
2017-04-18T00:04:58.647Z,1008.12
2017-04-18T00:05:39.147Z,1008.13
2017-04-18T00:06:19.621Z,1008.08
2017-04-18T00:07:00.148Z,1008.11
2017-04-18T00:07:40.583Z,1008.12
2017-04-18T00:08:21.073Z,1008.08
2017-04-18T00:09:01.556Z,1008.05
2017-04-18T00:09:42.053Z,1008.09
2017-04-18T00:10:22.572Z,1008.03
2017-04-18T00:11:03.051Z,1008.01
2017-04-18T00:11:43.529Z,1008.02
2017-04-18T00:12:24.033Z,1008.03
2017-04-18T00:13:04.553Z,1008.01
2017-04-18T00:13:45.013Z,1007.99
2017-04-18T00:14:25.501Z,1007.97
2017-04-18T00:15:05.985Z,1008.02
2017-04-18T00:15:46.477Z,1007.98
2017-04-18T00:16:26.971Z,1008
2017-04-18T00:17:07.448Z,1008.06
2017-04-18T00:17:47.934Z,1008
2017-04-18T00:18:28.422Z,1007.96
2017-04-18T00:19:08.901Z,1007.98
2017-04-18T00:19:49.394Z,1007.94
2017-04-18T00:20:29.864Z,1007.96
2017-04-18T00:21:10.352Z,1007.93
2017-04-18T00:21:50.837Z,1007.99
2017-04-18T00:22:31.320Z,1007.94
2017-04-18T00:23:11.810Z,1007.96
2017-04-18T00:23:52.299Z,1007.92
2017-04-18T00:24:33.516Z,1007.96
2017-04-18T00:25:13.995Z,1007.93
2017-04-18T00:25:54.482Z,1007.91
2017-04-18T00:26:34.981Z,1007.9
2017-04-18T00:27:15.449Z,1007.96
2017-04-18T00:27:55.913Z,1007.93
2017-04-18T00:28:36.398Z,1007.91
2017-04-18T00:29:16.886Z,1007.94
2017-04-18T00:29:57.360Z,1007.9
2017-04-18T00:30:37.855Z,1007.94
2017-04-18T00:31:18.354Z,1007.92
2017-04-18T00:31:58.832Z,1007.92
2017-04-18T00:32:39.323Z,1007.96
2017-04-18T00:33:19.782Z,1007.94
2017-04-18T00:34:00.262Z,1007.91
2017-04-18T00:34:40.724Z,1007.91
2017-04-18T00:35:21.215Z,1007.92
2017-04-18T00:36:01.689Z,1007.92
2017-04-18T00:36:42.196Z,1007.94
2017-04-18T00:37:22.679Z,1007.93
2017-04-18T00:38:03.115Z,1007.96
2017-04-18T00:38:43.606Z,1007.93
2017-04-18T00:39:24.090Z,1007.95
2017-04-18T00:40:04.568Z,1007.93
2017-04-18T00:40:45.044Z,1007.96
2017-04-18T00:41:25.531Z,1007.96
2017-04-18T00:42:06.024Z,1007.95
2017-04-18T00:42:46.504Z,1007.98
2017-04-18T00:43:26.972Z,1007.97
2017-04-18T00:44:07.445Z,1007.97
2017-04-18T00:46:35.413Z,1007.93
2017-04-18T00:47:15.885Z,1007.9
2017-04-18T00:47:56.375Z,1007.94
2017-04-18T00:48:36.858Z,1007.94
2017-04-18T00:49:17.332Z,1007.93
2017-04-18T00:49:57.811Z,1007.93
2017-04-18T00:50:38.302Z,1007.97
2017-04-18T00:51:18.782Z,1007.96
2017-04-18T00:51:59.265Z,1007.96
2017-04-18T00:52:39.747Z,1007.95
2017-04-18T00:53:20.248Z,1007.98
2017-04-18T00:54:00.725Z,1007.95
2017-04-18T00:54:41.256Z,1007.98
2017-04-18T00:55:21.700Z,1008.01
2017-04-18T00:56:02.177Z,1007.95
2017-04-18T00:56:42.667Z,1007.99
2017-04-18T00:57:23.150Z,1007.99
2017-04-18T00:58:03.622Z,1007.99
2017-04-18T00:58:44.112Z,1007.97
2017-04-18T00:59:24.609Z,1008.01
2017-04-18T01:00:05.089Z,1008
2017-04-18T01:00:45.584Z,1007.98
2017-04-18T01:01:26.065Z,1008
2017-04-18T01:02:06.554Z,1008.04
2017-04-18T01:02:47.045Z,1008.02
2017-04-18T01:03:27.521Z,1008.06
2017-04-18T01:04:08.070Z,1008.01
2017-04-18T01:04:48.479Z,1008.04
2017-04-18T01:05:28.961Z,1008.06
2017-04-18T01:06:09.459Z,1008.06
2017-04-18T01:06:49.955Z,1008.07
2017-04-18T01:07:30.433Z,1008.07
2017-04-18T01:08:10.929Z,1008.06
2017-04-18T01:08:51.417Z,1008.04
2017-04-18T01:09:31.894Z,1008.05
2017-04-18T01:10:12.378Z,1008.04
2017-04-18T01:10:52.869Z,1008.04
2017-04-18T01:11:33.383Z,1008.08
2017-04-18T01:12:13.942Z,1008.03
2017-04-18T01:12:54.330Z,1008.02
2017-04-18T01:13:34.789Z,1008.04
2017-04-18T01:14:15.233Z,1008
2017-04-18T01:14:55.713Z,1008.04
2017-04-18T01:15:36.143Z,1007.98
2017-04-18T01:16:16.583Z,1008.02
2017-04-18T01:16:57.036Z,1008.04
2017-04-18T01:17:37.483Z,1007.96
2017-04-18T01:18:17.943Z,1007.99
2017-04-18T01:18:58.391Z,1008.02
2017-04-18T01:20:50.933Z,1008
2017-04-18T01:21:31.406Z,1008.01
2017-04-18T01:22:11.888Z,1007.98
2017-04-18T01:22:52.398Z,1007.97
2017-04-18T01:23:32.872Z,1008.01
2017-04-18T01:24:13.339Z,1007.99
2017-04-18T01:24:53.822Z,1007.99
2017-04-18T01:25:34.300Z,1007.98
2017-04-18T01:26:14.828Z,1007.96
2017-04-18T01:26:55.289Z,1007.98
2017-04-18T01:27:35.785Z,1008
2017-04-18T01:28:16.296Z,1007.98
2017-04-18T01:28:56.744Z,1008
2017-04-18T01:29:37.232Z,1008
2017-04-18T01:30:17.712Z,1007.97
2017-04-18T01:30:58.246Z,1008
2017-04-18T01:31:38.729Z,1007.92
2017-04-18T01:32:19.234Z,1007.94
2017-04-18T01:32:59.694Z,1008
2017-04-18T01:33:40.179Z,1008.01
2017-04-18T01:34:20.653Z,1008.01
2017-04-18T01:35:01.149Z,1008.03
2017-04-18T01:35:41.678Z,1008.04
2017-04-18T01:36:22.103Z,1008.01
2017-04-18T01:37:02.592Z,1008.01
2017-04-18T01:37:43.058Z,1008.01
2017-04-18T01:38:23.536Z,1008.02
2017-04-18T01:39:04.026Z,1008.03
2017-04-18T01:39:44.507Z,1008
2017-04-18T01:40:24.977Z,1008.03
2017-04-18T01:41:05.461Z,1008.02
2017-04-18T01:41:45.969Z,1008.05
2017-04-18T01:42:26.448Z,1008.08
2017-04-18T01:43:07.000Z,1008.08
2017-04-18T01:43:47.464Z,1008.07
2017-04-18T01:44:27.940Z,1008.05
2017-04-18T01:45:08.519Z,1008.08
2017-04-18T01:45:49.005Z,1008.11
2017-04-18T01:46:29.518Z,1008.09
2017-04-18T01:47:09.961Z,1008.13
2017-04-18T01:47:50.435Z,1008.12
2017-04-18T01:48:30.907Z,1008.13
2017-04-18T01:49:11.408Z,1008.15
2017-04-18T01:49:51.887Z,1008.13
2017-04-18T01:50:32.368Z,1008.18
2017-04-18T01:51:12.844Z,1008.17
2017-04-18T01:51:53.327Z,1008.12
2017-04-18T01:52:33.821Z,1008.13
2017-04-18T01:53:14.286Z,1008.12
2017-04-18T01:53:54.777Z,1008.17
2017-04-18T01:54:35.253Z,1008.14
2017-04-18T01:55:15.737Z,1008.08
2017-04-18T01:55:56.217Z,1008.11
2017-04-18T01:56:36.699Z,1008.08
2017-04-18T01:57:17.199Z,1008.1
2017-04-18T01:57:57.672Z,1008.11
2017-04-18T01:58:38.159Z,1008.14
2017-04-18T01:59:19.437Z,1008.15
2017-04-18T01:59:59.917Z,1008.14
2017-04-18T02:00:40.397Z,1008.17
2017-04-18T02:01:20.901Z,1008.14
2017-04-18T02:02:01.407Z,1008.13
2017-04-18T02:02:41.866Z,1008.12
2017-04-18T02:03:22.358Z,1008.19
2017-04-18T02:04:02.835Z,1008.13
2017-04-18T02:04:43.320Z,1008.15
2017-04-18T02:05:23.776Z,1008.11
2017-04-18T02:06:04.252Z,1008.11
2017-04-18T02:06:44.715Z,1008.17
2017-04-18T02:07:25.154Z,1008.16
2017-04-18T02:08:05.619Z,1008.13
2017-04-18T02:08:46.087Z,1008.18
2017-04-18T02:09:26.526Z,1008.15
2017-04-18T02:11:24.150Z,1008.2
2017-04-18T02:12:04.652Z,1008.19
2017-04-18T02:12:45.119Z,1008.19
2017-04-18T02:13:25.566Z,1008.21
2017-04-18T02:14:06.041Z,1008.2
2017-04-18T02:14:46.491Z,1008.23
2017-04-18T02:15:26.957Z,1008.25
2017-04-18T02:16:07.446Z,1008.23
2017-04-18T02:16:47.884Z,1008.24
2017-04-18T02:18:40.482Z,1008.27
2017-04-18T02:19:20.905Z,1008.25
2017-04-18T02:20:01.399Z,1008.2
2017-04-18T02:20:41.894Z,1008.23
2017-04-18T02:21:22.374Z,1008.21
2017-04-18T02:22:02.837Z,1008.25
2017-04-18T02:22:43.334Z,1008.26
2017-04-18T02:23:23.825Z,1008.25
2017-04-18T02:24:04.331Z,1008.26
2017-04-18T02:24:44.765Z,1008.26
2017-04-18T02:25:25.246Z,1008.24
2017-04-18T02:26:05.766Z,1008.3
2017-04-18T02:26:46.219Z,1008.29
2017-04-18T02:27:26.700Z,1008.29
2017-04-18T02:28:07.180Z,1008.34
2017-04-18T02:28:47.666Z,1008.33
2017-04-18T02:29:28.161Z,1008.33
2017-04-18T02:30:08.655Z,1008.33
2017-04-18T02:30:49.136Z,1008.33
2017-04-18T02:31:29.629Z,1008.33
2017-04-18T02:32:10.112Z,1008.33
2017-04-18T02:32:50.591Z,1008.35
2017-04-18T02:33:31.077Z,1008.37
2017-04-18T02:34:11.560Z,1008.38
2017-04-18T02:34:52.046Z,1008.38
2017-04-18T02:35:32.515Z,1008.39
2017-04-18T02:36:13.002Z,1008.38
2017-04-18T02:36:53.541Z,1008.39
2017-04-18T02:37:33.971Z,1008.44
2017-04-18T02:38:14.452Z,1008.41
2017-04-18T02:38:54.943Z,1008.4
2017-04-18T02:39:35.445Z,1008.38
2017-04-18T02:40:15.904Z,1008.42
2017-04-18T02:40:56.382Z,1008.43
2017-04-18T02:41:36.832Z,1008.42
2017-04-18T02:42:17.324Z,1008.42
2017-04-18T02:42:57.815Z,1008.41
2017-04-18T02:43:38.285Z,1008.41
2017-04-18T02:44:18.762Z,1008.39
2017-04-18T02:44:59.250Z,1008.39
2017-04-18T02:45:39.737Z,1008.39
2017-04-18T02:46:20.213Z,1008.4
2017-04-18T02:47:00.671Z,1008.43
2017-04-18T02:47:41.150Z,1008.41
2017-04-18T02:48:21.623Z,1008.37
2017-04-18T02:49:02.111Z,1008.43
2017-04-18T02:49:42.604Z,1008.38
2017-04-18T02:50:23.083Z,1008.39
2017-04-18T02:51:03.553Z,1008.41
2017-04-18T02:51:44.058Z,1008.4
2017-04-18T02:52:24.550Z,1008.44
2017-04-18T02:53:05.023Z,1008.37
2017-04-18T02:53:45.480Z,1008.43
2017-04-18T02:54:25.965Z,1008.43
2017-04-18T02:55:06.454Z,1008.43
2017-04-18T02:55:46.941Z,1008.45
2017-04-18T02:56:27.411Z,1008.4
2017-04-18T02:57:07.883Z,1008.47
2017-04-18T02:57:48.378Z,1008.46
2017-04-18T02:58:28.855Z,1008.42
2017-04-18T02:59:09.337Z,1008.49
2017-04-18T02:59:49.818Z,1008.49
2017-04-18T03:00:30.292Z,1008.5
2017-04-18T03:01:10.744Z,1008.49
2017-04-18T03:01:51.179Z,1008.48
2017-04-18T03:02:31.633Z,1008.47
2017-04-18T03:04:49.434Z,1008.53
2017-04-18T03:05:29.875Z,1008.46
2017-04-18T03:06:10.362Z,1008.49
2017-04-18T03:06:50.815Z,1008.44
2017-04-18T03:09:08.583Z,1008.47
2017-04-18T03:09:49.091Z,1008.47
2017-04-18T03:10:29.549Z,1008.47
2017-04-18T03:11:10.021Z,1008.49
2017-04-18T03:11:50.495Z,1008.51
2017-04-18T03:12:30.980Z,1008.46
2017-04-18T03:13:11.451Z,1008.52
2017-04-18T03:13:51.943Z,1008.47
2017-04-18T03:14:32.428Z,1008.54
2017-04-18T03:15:12.911Z,1008.53
2017-04-18T03:15:53.400Z,1008.52
2017-04-18T03:16:33.870Z,1008.59
2017-04-18T03:17:14.337Z,1008.57
2017-04-18T03:17:54.812Z,1008.59
2017-04-18T03:18:35.301Z,1008.57
2017-04-18T03:19:15.781Z,1008.6
2017-04-18T03:21:43.708Z,1008.59
2017-04-18T03:22:24.179Z,1008.62
2017-04-18T03:23:04.654Z,1008.62
2017-04-18T03:23:45.134Z,1008.6
2017-04-18T03:24:25.658Z,1008.59
2017-04-18T03:25:06.149Z,1008.59
2017-04-18T03:25:46.609Z,1008.56
2017-04-18T03:26:27.068Z,1008.56
2017-04-18T03:27:07.531Z,1008.5
2017-04-18T03:27:48.002Z,1008.54
2017-04-18T03:28:28.477Z,1008.56
2017-04-18T03:29:08.979Z,1008.56
2017-04-18T03:29:49.458Z,1008.55
2017-04-18T03:30:29.926Z,1008.58
2017-04-18T03:31:10.400Z,1008.55
2017-04-18T03:33:02.965Z,1008.56
2017-04-18T03:33:43.432Z,1008.58
2017-04-18T03:34:23.923Z,1008.56
2017-04-18T03:35:04.424Z,1008.56
2017-04-18T03:35:44.908Z,1008.54
2017-04-18T03:36:25.456Z,1008.59
2017-04-18T03:37:05.900Z,1008.61
2017-04-18T03:37:46.374Z,1008.58
2017-04-18T03:38:26.863Z,1008.57
2017-04-18T03:39:07.325Z,1008.61
2017-04-18T03:39:47.809Z,1008.6
2017-04-18T03:40:28.378Z,1008.63
2017-04-18T03:41:08.800Z,1008.6
2017-04-18T03:41:49.276Z,1008.59
2017-04-18T03:42:29.766Z,1008.66
2017-04-18T03:43:10.271Z,1008.68
2017-04-18T03:43:50.735Z,1008.63
2017-04-18T03:44:31.218Z,1008.65
2017-04-18T03:45:11.693Z,1008.62
2017-04-18T03:45:52.188Z,1008.63
2017-04-18T03:46:32.667Z,1008.61
2017-04-18T03:47:13.161Z,1008.66
2017-04-18T03:47:53.644Z,1008.64
2017-04-18T03:48:34.127Z,1008.65
2017-04-18T03:49:14.603Z,1008.65
2017-04-18T03:49:55.074Z,1008.68
2017-04-18T03:50:35.506Z,1008.71
2017-04-18T03:52:28.075Z,1008.72
2017-04-18T03:53:08.525Z,1008.72
2017-04-18T03:53:49.751Z,1008.68
2017-04-18T03:54:30.218Z,1008.72
2017-04-18T03:55:10.698Z,1008.72
2017-04-18T03:55:51.160Z,1008.75
2017-04-18T03:56:31.602Z,1008.7
2017-04-18T03:58:49.406Z,1008.75
2017-04-18T03:59:29.870Z,1008.75
2017-04-18T04:00:10.382Z,1008.71
2017-04-18T04:00:50.861Z,1008.74
2017-04-18T04:01:31.344Z,1008.76
2017-04-18T04:02:11.834Z,1008.75
2017-04-18T04:02:52.325Z,1008.76
2017-04-18T04:03:32.807Z,1008.75
2017-04-18T04:04:13.328Z,1008.73
2017-04-18T04:04:53.782Z,1008.75
2017-04-18T04:05:34.272Z,1008.78
2017-04-18T04:06:14.763Z,1008.77
2017-04-18T04:06:55.262Z,1008.77
2017-04-18T04:07:35.760Z,1008.79
2017-04-18T04:08:16.243Z,1008.81
2017-04-18T04:08:56.718Z,1008.85
2017-04-18T04:09:37.195Z,1008.84
2017-04-18T04:10:17.691Z,1008.85
2017-04-18T04:10:58.173Z,1008.84
2017-04-18T04:11:38.648Z,1008.87
2017-04-18T04:12:19.132Z,1008.84
2017-04-18T04:12:59.616Z,1008.84
2017-04-18T04:13:40.082Z,1008.91
2017-04-18T04:14:20.632Z,1008.89
2017-04-18T04:15:01.027Z,1008.86
2017-04-18T04:15:41.494Z,1008.9
2017-04-18T04:16:21.977Z,1008.88
2017-04-18T04:17:02.475Z,1008.9
2017-04-18T04:17:42.955Z,1008.91
2017-04-18T04:18:23.467Z,1008.9
2017-04-18T04:19:03.913Z,1008.97
2017-04-18T04:19:44.396Z,1008.92
2017-04-18T04:20:24.923Z,1008.95
2017-04-18T04:21:05.369Z,1008.98
2017-04-18T04:21:45.852Z,1008.96
2017-04-18T04:22:26.354Z,1008.91
2017-04-18T04:23:06.820Z,1008.88
2017-04-18T04:23:47.303Z,1008.96
2017-04-18T04:24:27.787Z,1008.93
2017-04-18T04:25:08.276Z,1008.97
2017-04-18T04:25:48.762Z,1008.91
2017-04-18T04:26:29.253Z,1008.95
2017-04-18T04:27:09.759Z,1008.95
2017-04-18T04:27:50.225Z,1008.98
2017-04-18T04:28:30.694Z,1008.97
2017-04-18T04:29:11.177Z,1008.97
2017-04-18T04:29:51.649Z,1008.99
2017-04-18T04:30:32.162Z,1009
2017-04-18T04:31:12.624Z,1008.96
2017-04-18T04:31:53.105Z,1008.98
2017-04-18T04:32:33.581Z,1009.03
2017-04-18T04:33:14.077Z,1009
2017-04-18T04:33:54.558Z,1008.99
2017-04-18T04:34:35.061Z,1008.99
2017-04-18T04:35:15.514Z,1009.06
2017-04-18T04:35:56.000Z,1009.07
2017-04-18T04:36:36.490Z,1009.05
2017-04-18T04:37:16.970Z,1009.05
2017-04-18T04:37:57.455Z,1009.12
2017-04-18T04:38:37.935Z,1009.08
2017-04-18T04:39:18.427Z,1009.1
2017-04-18T04:39:58.913Z,1009.12
2017-04-18T04:40:39.392Z,1009.16
2017-04-18T04:41:19.883Z,1009.2
2017-04-18T04:42:00.356Z,1009.16
2017-04-18T04:42:40.844Z,1009.16
2017-04-18T04:43:21.328Z,1009.21
2017-04-18T04:44:01.791Z,1009.22
2017-04-18T04:44:42.283Z,1009.17
2017-04-18T04:45:22.745Z,1009.16
2017-04-18T04:46:03.247Z,1009.17
2017-04-18T04:46:43.735Z,1009.19
2017-04-18T04:47:24.229Z,1009.22
2017-04-18T04:48:04.746Z,1009.18
2017-04-18T04:48:45.184Z,1009.2
2017-04-18T04:49:25.685Z,1009.16
2017-04-18T04:50:06.157Z,1009.19
2017-04-18T04:50:46.638Z,1009.18
2017-04-18T04:51:27.127Z,1009.23
2017-04-18T04:52:07.614Z,1009.21
2017-04-18T04:52:48.087Z,1009.16
2017-04-18T04:53:28.573Z,1009.2
2017-04-18T04:54:09.062Z,1009.2
2017-04-18T04:54:49.557Z,1009.16
2017-04-18T04:55:30.036Z,1009.22
2017-04-18T04:56:10.514Z,1009.25
2017-04-18T04:56:50.981Z,1009.25
2017-04-18T04:57:31.456Z,1009.2
2017-04-18T04:58:11.904Z,1009.26
2017-04-18T04:58:52.343Z,1009.23
2017-04-18T04:59:32.800Z,1009.25
2017-04-18T05:00:13.227Z,1009.25
2017-04-18T05:00:53.692Z,1009.26
2017-04-18T05:01:34.121Z,1009.22
2017-04-18T05:02:14.576Z,1009.27
2017-04-18T05:02:55.024Z,1009.24
2017-04-18T05:05:12.773Z,1009.25
2017-04-18T05:05:53.264Z,1009.28
2017-04-18T05:06:33.748Z,1009.3
2017-04-18T05:07:14.237Z,1009.31
2017-04-18T05:07:54.717Z,1009.27
2017-04-18T05:08:35.196Z,1009.35
2017-04-18T05:09:15.671Z,1009.34
2017-04-18T05:09:56.162Z,1009.33
2017-04-18T05:10:36.630Z,1009.38
2017-04-18T05:11:17.098Z,1009.4
2017-04-18T05:11:57.595Z,1009.42
2017-04-18T05:12:38.081Z,1009.38
2017-04-18T05:13:18.550Z,1009.38
2017-04-18T05:13:59.033Z,1009.39
2017-04-18T05:14:39.522Z,1009.43
2017-04-18T05:15:20.006Z,1009.45
2017-04-18T05:16:00.481Z,1009.46
2017-04-18T05:16:40.963Z,1009.45
2017-04-18T05:17:21.414Z,1009.46
2017-04-18T05:19:13.951Z,1009.51
2017-04-18T05:19:54.403Z,1009.52
2017-04-18T05:20:34.864Z,1009.61
2017-04-18T05:21:15.349Z,1009.54
2017-04-18T05:21:55.883Z,1009.54
2017-04-18T05:22:36.364Z,1009.54
2017-04-18T05:23:16.867Z,1009.56
2017-04-18T05:23:57.336Z,1009.53
2017-04-18T05:24:37.813Z,1009.58
2017-04-18T05:25:18.319Z,1009.59
2017-04-18T05:25:58.808Z,1009.58
2017-04-18T05:26:39.298Z,1009.6
2017-04-18T05:27:19.772Z,1009.63
2017-04-18T05:28:00.249Z,1009.65
2017-04-18T05:28:40.743Z,1009.66
2017-04-18T05:29:21.224Z,1009.68
2017-04-18T05:30:01.703Z,1009.69
2017-04-18T05:31:59.298Z,1009.72
2017-04-18T05:32:39.777Z,1009.74
2017-04-18T05:33:20.275Z,1009.76
2017-04-18T05:34:00.736Z,1009.75
2017-04-18T05:34:41.181Z,1009.73
2017-04-18T05:35:21.620Z,1009.71
2017-04-18T05:36:02.093Z,1009.74
2017-04-18T05:36:42.554Z,1009.73
2017-04-18T05:37:23.013Z,1009.77
2017-04-18T05:38:03.465Z,1009.76
2017-04-18T05:38:43.916Z,1009.77
2017-04-18T05:39:24.384Z,1009.8
2017-04-18T05:40:04.835Z,1009.78
2017-04-18T05:41:57.391Z,1009.82
2017-04-18T05:42:37.893Z,1009.81
2017-04-18T05:43:18.521Z,1009.84
2017-04-18T05:43:59.053Z,1009.85
2017-04-18T05:44:39.624Z,1009.86
2017-04-18T05:45:20.196Z,1009.87
2017-04-18T05:46:00.744Z,1009.88
2017-04-18T05:46:41.208Z,1009.84
2017-04-18T05:47:21.692Z,1009.86
2017-04-18T05:48:02.144Z,1009.86
2017-04-18T05:49:59.787Z,1009.9
2017-04-18T05:50:40.233Z,1009.91
2017-04-18T05:51:20.703Z,1009.95
2017-04-18T05:52:01.150Z,1010.02
2017-04-18T05:52:41.645Z,1009.98
2017-04-18T05:53:22.843Z,1010.01
2017-04-18T05:54:03.338Z,1009.98
2017-04-18T05:54:43.781Z,1010.03
2017-04-18T05:55:24.221Z,1009.99
2017-04-18T05:56:04.711Z,1009.99
2017-04-18T05:56:45.179Z,1010.02
2017-04-18T05:57:25.588Z,1010
2017-04-18T05:58:06.037Z,1010.03
2017-04-18T05:58:46.475Z,1010.03
2017-04-18T05:59:27.003Z,1010.04
2017-04-18T06:00:07.424Z,1010.04
2017-04-18T06:00:47.870Z,1010.08
2017-04-18T06:01:28.336Z,1010.06
2017-04-18T06:03:56.297Z,1010.16
2017-04-18T06:04:36.728Z,1010.15
2017-04-18T06:05:17.192Z,1010.17
2017-04-18T06:05:57.621Z,1010.13
2017-04-18T06:06:38.085Z,1010.18
2017-04-18T06:07:18.512Z,1010.16
2017-04-18T06:09:11.091Z,1010.19
2017-04-18T06:09:51.565Z,1010.18
2017-04-18T06:10:32.015Z,1010.22
2017-04-18T06:11:12.478Z,1010.2
2017-04-18T06:11:52.955Z,1010.2
2017-04-18T06:12:33.385Z,1010.22
2017-04-18T06:13:13.872Z,1010.22
2017-04-18T06:15:11.523Z,1010.26
2017-04-18T06:15:51.985Z,1010.21
2017-04-18T06:16:32.449Z,1010.26
2017-04-18T06:17:12.914Z,1010.26
2017-04-18T06:17:53.361Z,1010.3
2017-04-18T06:18:33.813Z,1010.26
2017-04-18T06:19:14.245Z,1010.29
2017-04-18T06:19:54.725Z,1010.3
2017-04-18T06:20:35.168Z,1010.36
2017-04-18T06:22:27.740Z,1010.41
2017-04-18T06:23:08.211Z,1010.37
2017-04-18T06:23:48.688Z,1010.41
2017-04-18T06:24:29.166Z,1010.36
2017-04-18T06:25:09.633Z,1010.37
2017-04-18T06:25:50.110Z,1010.38
2017-04-18T06:28:03.562Z,1010.45
2017-04-18T06:28:43.960Z,1010.47
2017-04-18T06:29:24.427Z,1010.47
2017-04-18T06:30:04.887Z,1010.48
2017-04-18T06:30:45.365Z,1010.5
2017-04-18T06:31:25.847Z,1010.46
2017-04-18T06:32:06.389Z,1010.48
2017-04-18T06:32:46.933Z,1010.47
2017-04-18T06:33:27.431Z,1010.45
2017-04-18T06:34:07.909Z,1010.41
2017-04-18T06:34:48.385Z,1010.46
2017-04-18T06:35:28.847Z,1010.49
2017-04-18T06:37:56.873Z,1010.49
2017-04-18T06:38:37.325Z,1010.48
2017-04-18T06:39:17.775Z,1010.52
2017-04-18T06:39:58.230Z,1010.52
2017-04-18T06:42:10.984Z,1010.54
2017-04-18T06:42:51.469Z,1010.58
2017-04-18T06:43:31.952Z,1010.54
2017-04-18T06:44:12.439Z,1010.52
2017-04-18T06:44:52.916Z,1010.54
2017-04-18T06:45:33.434Z,1010.46
2017-04-18T06:46:13.885Z,1010.49
2017-04-18T06:46:54.358Z,1010.45
2017-04-18T06:49:22.411Z,1010.45
2017-04-18T06:51:50.312Z,1010.47
2017-04-18T06:52:30.785Z,1010.49
2017-04-18T06:53:11.269Z,1010.52
2017-04-18T06:53:51.709Z,1010.55
2017-04-18T06:54:32.196Z,1010.53
2017-04-18T06:55:12.656Z,1010.51
2017-04-18T06:55:53.160Z,1010.57
2017-04-18T06:56:33.621Z,1010.53
2017-04-18T06:57:14.082Z,1010.61
2017-04-18T06:57:54.527Z,1010.5
2017-04-18T06:58:35.019Z,1010.57
2017-04-18T06:59:15.515Z,1010.57
2017-04-18T06:59:55.956Z,1010.59
2017-04-18T07:00:36.423Z,1010.55
2017-04-18T07:01:16.890Z,1010.59
2017-04-18T07:01:57.336Z,1010.58
2017-04-18T07:02:37.829Z,1010.59
2017-04-18T07:03:19.059Z,1010.59
2017-04-18T07:03:59.476Z,1010.57
2017-04-18T07:04:39.986Z,1010.6
2017-04-18T07:05:20.406Z,1010.58
2017-04-18T07:07:38.232Z,1010.66
2017-04-18T07:08:18.695Z,1010.64
2017-04-18T07:08:59.217Z,1010.65
2017-04-18T07:09:39.660Z,1010.68
2017-04-18T07:10:20.158Z,1010.66
2017-04-18T07:11:00.649Z,1010.7
2017-04-18T07:11:41.105Z,1010.68
2017-04-18T07:12:21.565Z,1010.71
2017-04-18T07:13:02.032Z,1010.69
2017-04-18T07:13:42.506Z,1010.71
2017-04-18T07:14:22.999Z,1010.74
2017-04-18T07:15:03.481Z,1010.71
2017-04-18T07:15:43.979Z,1010.69
2017-04-18T07:16:24.473Z,1010.74
2017-04-18T07:18:42.337Z,1010.76
2017-04-18T07:19:22.788Z,1010.73
2017-04-18T07:20:03.223Z,1010.73
2017-04-18T07:22:00.820Z,1010.79
2017-04-18T07:22:41.276Z,1010.8
2017-04-18T07:23:21.735Z,1010.76
2017-04-18T07:25:34.466Z,1010.83
2017-04-18T07:26:14.955Z,1010.84
2017-04-18T07:26:55.451Z,1010.84
2017-04-18T07:27:35.993Z,1010.84
2017-04-18T07:28:16.528Z,1010.82
2017-04-18T07:28:57.004Z,1010.88
2017-04-18T07:29:37.460Z,1010.9
2017-04-18T07:31:30.010Z,1010.91
2017-04-18T07:32:10.512Z,1010.92
2017-04-18T07:32:50.981Z,1010.96
2017-04-18T07:33:31.460Z,1010.96
2017-04-18T07:34:11.983Z,1011
2017-04-18T07:34:52.514Z,1010.98
2017-04-18T07:35:33.036Z,1011.02
2017-04-18T07:36:13.500Z,1011.02
2017-04-18T07:36:53.986Z,1011.01
2017-04-18T07:37:35.216Z,1011.08
2017-04-18T07:38:15.704Z,1011.03
2017-04-18T07:40:33.607Z,1011.07
2017-04-18T07:41:14.051Z,1011.07
2017-04-18T07:41:54.577Z,1011.11
2017-04-18T07:42:35.013Z,1011.1
2017-04-18T07:43:15.511Z,1011.11
2017-04-18T07:45:33.279Z,1011.04
2017-04-18T07:46:13.781Z,1011.06
2017-04-18T07:46:54.265Z,1011.15
2017-04-18T07:47:34.741Z,1011.13
2017-04-18T07:48:15.244Z,1011.1
2017-04-18T07:48:55.710Z,1011.1
2017-04-18T07:49:36.163Z,1011.13
2017-04-18T07:50:16.650Z,1011.17
2017-04-18T07:50:57.154Z,1011.17
2017-04-18T07:51:37.625Z,1011.13
2017-04-18T07:52:18.137Z,1011.19
2017-04-18T07:52:58.594Z,1011.18
2017-04-18T07:53:39.106Z,1011.24
2017-04-18T07:56:07.106Z,1011.15
2017-04-18T07:56:47.454Z,1011.15
2017-04-18T07:57:27.987Z,1011.14
2017-04-18T07:58:08.977Z,1011.16
2017-04-18T07:58:49.501Z,1011.12
2017-04-18T07:59:29.999Z,1011.12
2017-04-18T08:00:10.470Z,1011.15
2017-04-18T08:00:50.989Z,1011.15
2017-04-18T08:01:31.442Z,1011.16
2017-04-18T08:02:11.913Z,1011.19
2017-04-18T08:02:52.421Z,1011.18
2017-04-18T08:03:32.938Z,1011.21
2017-04-18T08:04:13.419Z,1011.22
2017-04-18T08:04:53.895Z,1011.16
2017-04-18T08:05:34.359Z,1011.23
2017-04-18T08:06:14.801Z,1011.23
2017-04-18T08:08:42.764Z,1011.39
2017-04-18T08:09:23.234Z,1011.34
2017-04-18T08:10:03.684Z,1011.35
2017-04-18T08:10:44.158Z,1011.31
2017-04-18T08:11:24.607Z,1011.35
2017-04-18T08:12:05.093Z,1011.4
2017-04-18T08:12:45.609Z,1011.43
2017-04-18T08:13:26.138Z,1011.41
2017-04-18T08:14:06.671Z,1011.42
2017-04-18T08:14:47.142Z,1011.4
2017-04-18T08:15:27.635Z,1011.41
2017-04-18T08:16:08.163Z,1011.37
2017-04-18T08:16:48.655Z,1011.44
2017-04-18T08:17:29.116Z,1011.46
2017-04-18T08:18:09.605Z,1011.47
2017-04-18T08:18:50.058Z,1011.46
2017-04-18T08:19:30.529Z,1011.54
2017-04-18T08:20:11.021Z,1011.5
2017-04-18T08:20:51.574Z,1011.51
2017-04-18T08:21:32.828Z,1011.55
2017-04-18T08:22:13.313Z,1011.52
2017-04-18T08:22:53.828Z,1011.58
2017-04-18T08:23:34.307Z,1011.57
2017-04-18T08:24:14.759Z,1011.63
2017-04-18T08:24:55.259Z,1011.65
2017-04-18T08:25:35.752Z,1011.68
2017-04-18T08:26:16.223Z,1011.63
2017-04-18T08:26:56.717Z,1011.66
2017-04-18T08:27:37.270Z,1011.71
2017-04-18T08:28:17.743Z,1011.71
2017-04-18T08:28:58.237Z,1011.72
2017-04-18T08:29:38.753Z,1011.74
2017-04-18T08:30:19.222Z,1011.76
2017-04-18T08:30:59.753Z,1011.71
2017-04-18T08:31:40.249Z,1011.74
2017-04-18T08:32:20.799Z,1011.76
2017-04-18T08:33:01.312Z,1011.72
2017-04-18T08:33:41.873Z,1011.8
2017-04-18T08:34:22.334Z,1011.78
2017-04-18T08:36:35.102Z,1011.83
2017-04-18T08:37:15.541Z,1011.88
2017-04-18T08:37:56.092Z,1011.92
2017-04-18T08:38:36.625Z,1012.04
2017-04-18T08:39:17.124Z,1012.15
2017-04-18T08:39:58.355Z,1012.2
2017-04-18T08:40:38.866Z,1012.18
2017-04-18T08:41:19.403Z,1012.23
2017-04-18T08:41:59.863Z,1012.31
2017-04-18T08:43:52.421Z,1012.26
2017-04-18T08:44:32.908Z,1012.21
2017-04-18T08:45:13.415Z,1012.2
2017-04-18T08:45:53.883Z,1012.21
2017-04-18T08:46:34.413Z,1012.16
2017-04-18T08:47:14.889Z,1012.11
2017-04-18T08:47:55.468Z,1012.08
2017-04-18T08:48:35.918Z,1012.09
2017-04-18T08:49:16.419Z,1012.04
2017-04-18T08:49:56.899Z,1012.01
2017-04-18T08:50:37.466Z,1012.04
2017-04-18T08:51:17.981Z,1012.08
2017-04-18T08:51:58.407Z,1012.14
2017-04-18T08:52:38.949Z,1012.15
2017-04-18T08:54:36.595Z,1012.21
2017-04-18T08:55:17.092Z,1012.23
2017-04-18T08:55:57.594Z,1012.22
2017-04-18T08:56:38.139Z,1012.23
2017-04-18T08:57:18.614Z,1012.36
2017-04-18T08:57:59.103Z,1012.37
2017-04-18T08:58:39.604Z,1012.47
2017-04-18T08:59:20.080Z,1012.51
2017-04-18T09:00:00.576Z,1012.52
2017-04-18T09:02:18.337Z,1012.55
2017-04-18T09:02:58.794Z,1012.61
2017-04-18T09:05:16.646Z,1012.46
2017-04-18T09:05:57.121Z,1012.33
2017-04-18T09:06:37.656Z,1012.29
2017-04-18T09:07:18.124Z,1012.24
2017-04-18T09:07:58.659Z,1012.18